createdAt,value
2023-05-23T00:01:45.490Z,4.45
2023-05-23T00:04:18.942Z,3.80
2023-05-23T00:06:50.659Z,4.00
2023-05-23T00:09:17.899Z,3.47
2023-05-23T00:11:45.610Z,4.00
2023-05-23T00:14:16.994Z,3.67
2023-05-23T00:16:45.323Z,3.80
2023-05-23T00:19:16.359Z,3.20
2023-05-23T00:21:45.747Z,3.72
2023-05-23T00:24:13.163Z,3.67
2023-05-23T00:26:40.137Z,3.60
2023-05-23T00:29:07.449Z,3.70
2023-05-23T00:31:34.661Z,3.72
2023-05-23T00:34:01.594Z,3.65
2023-05-23T00:36:28.497Z,3.97
2023-05-23T00:38:55.834Z,3.50
2023-05-23T00:41:22.771Z,3.55
2023-05-23T00:43:49.603Z,3.50
2023-05-23T00:46:16.847Z,4.10
2023-05-23T00:48:44.048Z,4.25
2023-05-23T00:51:10.973Z,4.00
2023-05-23T00:53:37.979Z,3.92
2023-05-23T00:56:05.115Z,3.35
2023-05-23T00:58:32.457Z,3.85
2023-05-23T01:01:01.057Z,4.35
2023-05-23T01:03:28.842Z,3.75
2023-05-23T01:05:56.809Z,4.13
2023-05-23T01:08:24.199Z,3.97
2023-05-23T01:10:52.134Z,3.90
2023-05-23T01:13:30.946Z,3.90
2023-05-23T01:16:15.209Z,3.97
2023-05-23T01:19:17.704Z,4.00
2023-05-23T01:21:53.055Z,4.32
2023-05-23T01:24:36.402Z,4.25
2023-05-23T01:27:18.947Z,3.90
2023-05-23T01:29:47.655Z,4.13
2023-05-23T01:32:15.986Z,4.45
2023-05-23T01:34:44.152Z,4.20
2023-05-23T01:37:14.548Z,4.43
2023-05-23T01:39:42.234Z,4.50
2023-05-23T01:42:09.865Z,4.47
2023-05-23T01:44:37.305Z,4.40
2023-05-23T01:47:08.332Z,4.35
2023-05-23T01:49:37.193Z,4.22
2023-05-23T01:52:05.813Z,4.22
2023-05-23T01:54:35.410Z,4.10
2023-05-23T01:57:03.701Z,4.47
2023-05-23T01:59:30.658Z,4.28
2023-05-23T02:01:57.589Z,4.00
2023-05-23T02:04:24.507Z,4.55
2023-05-23T02:06:51.431Z,4.35
2023-05-23T02:09:18.787Z,3.83
2023-05-23T02:11:45.692Z,3.85
2023-05-23T02:14:13.054Z,3.70
2023-05-23T02:16:40.039Z,4.13
2023-05-23T02:19:07.421Z,4.15
2023-05-23T02:21:35.555Z,4.82
2023-05-23T02:24:02.877Z,3.95
2023-05-23T02:26:30.781Z,4.22
2023-05-23T02:28:57.680Z,4.25
2023-05-23T02:31:24.589Z,3.58
2023-05-23T02:33:51.532Z,4.68
2023-05-23T02:36:18.536Z,3.70
2023-05-23T02:38:45.481Z,4.03
2023-05-23T02:41:12.665Z,4.20
2023-05-23T02:43:39.694Z,3.97
2023-05-23T02:46:06.777Z,4.13
2023-05-23T02:48:34.104Z,4.07
2023-05-23T02:51:01.176Z,3.60
2023-05-23T02:53:28.489Z,4.38
2023-05-23T02:55:55.477Z,4.53
2023-05-23T02:58:22.350Z,3.78
2023-05-23T03:00:49.619Z,3.95
2023-05-23T03:03:17.732Z,4.30
2023-05-23T03:05:45.176Z,4.53
2023-05-23T03:08:12.171Z,4.30
2023-05-23T03:10:39.069Z,4.05
2023-05-23T03:13:06.000Z,4.30
2023-05-23T03:15:32.903Z,4.00
2023-05-23T03:17:59.902Z,3.70
2023-05-23T03:20:27.343Z,4.00
2023-05-23T03:22:54.171Z,3.92
2023-05-23T03:25:21.083Z,3.78
2023-05-23T03:27:47.962Z,4.00
2023-05-23T03:30:15.351Z,3.28
2023-05-23T03:32:42.430Z,3.85
2023-05-23T03:35:09.814Z,4.30
2023-05-23T03:37:36.675Z,4.13
2023-05-23T03:40:04.073Z,3.95
2023-05-23T03:42:31.467Z,4.10
2023-05-23T03:44:58.424Z,3.50
2023-05-23T03:47:25.415Z,3.72
2023-05-23T03:49:52.765Z,3.85
2023-05-23T03:52:20.029Z,3.78
2023-05-23T03:54:46.896Z,4.38
2023-05-23T03:57:13.827Z,4.00
2023-05-23T03:59:41.762Z,4.05
2023-05-23T04:02:08.721Z,3.45
2023-05-23T04:04:36.271Z,3.35
2023-05-23T04:07:03.240Z,4.20
2023-05-23T04:09:30.616Z,3.65
2023-05-23T04:11:58.495Z,4.30
2023-05-23T04:14:25.439Z,4.22
2023-05-23T04:16:52.489Z,3.92
2023-05-23T04:19:19.947Z,4.00
2023-05-23T04:21:47.377Z,3.85
2023-05-23T04:24:14.332Z,3.97
2023-05-23T04:26:41.424Z,3.33
2023-05-23T04:29:08.820Z,3.05
2023-05-23T04:31:35.693Z,3.67
2023-05-23T04:34:02.847Z,3.92
2023-05-23T04:36:30.312Z,4.03
2023-05-23T04:38:57.295Z,3.45
2023-05-23T04:41:24.517Z,3.67
2023-05-23T04:43:54.386Z,3.70
2023-05-23T04:46:27.673Z,3.92
2023-05-23T04:48:55.342Z,3.40
2023-05-23T04:51:22.515Z,3.53
2023-05-23T04:53:50.534Z,3.28
2023-05-23T04:56:18.594Z,4.55
2023-05-23T04:58:48.114Z,4.00
2023-05-23T05:01:15.074Z,3.42
2023-05-23T05:03:42.102Z,3.53
2023-05-23T05:06:09.195Z,2.35
2023-05-23T05:08:36.941Z,3.40
2023-05-23T05:11:03.893Z,3.30
2023-05-23T05:13:31.212Z,3.50
2023-05-23T05:15:58.945Z,3.92
2023-05-23T05:18:30.127Z,3.65
2023-05-23T05:20:57.465Z,3.60
2023-05-23T05:23:28.984Z,3.50
2023-05-23T05:25:56.589Z,4.10
2023-05-23T05:28:24.130Z,3.28
2023-05-23T05:30:54.414Z,3.92
2023-05-23T05:33:25.324Z,3.35
2023-05-23T05:35:52.271Z,3.83
2023-05-23T05:38:19.115Z,3.90
2023-05-23T05:40:46.065Z,3.38
2023-05-23T05:43:12.989Z,3.60
2023-05-23T05:45:40.333Z,3.17
2023-05-23T05:48:08.267Z,3.65
2023-05-23T05:50:35.337Z,3.40
2023-05-23T05:53:02.332Z,3.20
2023-05-23T05:55:29.570Z,3.22
2023-05-23T05:57:56.631Z,3.20
2023-05-23T06:00:25.317Z,4.18
2023-05-23T06:02:52.675Z,3.40
2023-05-23T06:05:19.799Z,3.00
2023-05-23T06:07:49.756Z,2.97
2023-05-23T06:10:16.799Z,2.90
2023-05-23T06:12:43.747Z,2.60
2023-05-23T06:15:11.140Z,2.70
2023-05-23T06:17:38.182Z,2.58
2023-05-23T06:20:05.921Z,2.42
2023-05-23T06:22:32.944Z,2.60
2023-05-23T06:24:59.999Z,2.70
2023-05-23T06:27:26.890Z,3.00
2023-05-23T06:29:54.016Z,2.75
2023-05-23T06:32:20.922Z,2.70
2023-05-23T06:34:47.817Z,2.47
2023-05-23T06:37:14.818Z,2.83
2023-05-23T06:39:41.716Z,2.50
2023-05-23T06:42:08.685Z,2.67
2023-05-23T06:44:36.098Z,2.70
2023-05-23T06:47:03.054Z,3.17
2023-05-23T06:49:30.415Z,2.92
2023-05-23T06:51:57.380Z,2.38
2023-05-23T06:54:24.756Z,2.30
2023-05-23T06:56:51.690Z,2.22
2023-05-23T06:59:19.680Z,2.00
2023-05-23T07:01:46.834Z,2.45
2023-05-23T07:04:14.424Z,2.50
2023-05-23T07:06:44.245Z,2.38
2023-05-23T07:09:13.209Z,1.95
2023-05-23T07:11:41.306Z,2.22
2023-05-23T07:14:08.759Z,2.20
2023-05-23T07:16:36.040Z,2.30
2023-05-23T07:19:05.640Z,2.22
2023-05-23T07:21:32.671Z,2.90
2023-05-23T07:23:59.573Z,2.80
2023-05-23T07:26:27.604Z,3.00
2023-05-23T07:28:54.735Z,2.53
2023-05-23T07:31:21.896Z,2.53
2023-05-23T07:33:48.939Z,2.60
2023-05-23T07:36:16.590Z,2.60
2023-05-23T07:38:43.866Z,2.67
2023-05-23T07:41:12.411Z,2.33
2023-05-23T07:43:40.698Z,2.20
2023-05-23T07:46:07.793Z,2.42
2023-05-23T07:48:34.844Z,2.53
2023-05-23T07:51:01.830Z,2.10
2023-05-23T07:53:28.868Z,2.45
2023-05-23T07:55:56.800Z,2.10
2023-05-23T07:58:24.257Z,2.00
2023-05-23T08:00:52.720Z,2.00
2023-05-23T08:03:20.649Z,2.28
2023-05-23T08:05:47.788Z,2.35
2023-05-23T08:08:14.749Z,2.17
2023-05-23T08:10:41.799Z,2.47
2023-05-23T08:13:12.750Z,2.10
2023-05-23T08:15:40.092Z,1.90
2023-05-23T08:18:07.501Z,2.42
2023-05-23T08:20:34.501Z,2.08
2023-05-23T08:23:02.653Z,2.35
2023-05-23T08:25:33.213Z,2.60
2023-05-23T08:28:01.607Z,2.28
2023-05-23T08:30:29.636Z,2.65
2023-05-23T08:32:57.889Z,2.22
2023-05-23T08:35:24.845Z,2.30
2023-05-23T08:37:52.552Z,2.72
2023-05-23T08:40:22.164Z,2.97
2023-05-23T08:42:50.952Z,2.47
2023-05-23T08:45:18.818Z,2.13
2023-05-23T08:47:47.574Z,2.38
2023-05-23T08:50:18.021Z,2.72
2023-05-23T08:52:57.715Z,2.58
2023-05-23T08:55:27.359Z,2.38
2023-05-23T08:57:55.292Z,2.55
2023-05-23T09:00:24.910Z,2.00
2023-05-23T09:02:52.830Z,2.25
2023-05-23T09:05:20.389Z,2.20
2023-05-23T09:07:49.199Z,1.85
2023-05-23T09:10:25.622Z,2.05
2023-05-23T09:12:52.565Z,2.25
2023-05-23T09:15:19.457Z,2.22
2023-05-23T09:17:46.991Z,2.30
2023-05-23T09:20:16.785Z,2.05
2023-05-23T09:22:50.111Z,2.10
2023-05-23T09:25:17.290Z,2.05
2023-05-23T09:27:47.506Z,2.00
2023-05-23T09:30:15.883Z,1.80
2023-05-23T09:32:44.742Z,2.30
2023-05-23T09:35:13.910Z,2.17
2023-05-23T09:37:49.020Z,1.92
2023-05-23T09:40:16.639Z,2.05
2023-05-23T09:42:46.362Z,1.88
2023-05-23T09:45:15.052Z,2.20
2023-05-23T09:47:52.358Z,1.60
2023-05-23T09:50:20.081Z,2.15
2023-05-23T09:52:48.187Z,2.33
2023-05-23T09:55:15.703Z,2.05
2023-05-23T09:57:44.439Z,1.85
2023-05-23T10:00:13.865Z,1.88
2023-05-23T10:02:56.148Z,1.90
2023-05-23T10:05:47.523Z,1.50
2023-05-23T10:08:22.372Z,1.83
2023-05-23T10:10:52.525Z,1.83
2023-05-23T10:13:20.779Z,1.70
2023-05-23T10:15:50.757Z,1.50
2023-05-23T10:18:23.757Z,1.80
2023-05-23T10:20:54.215Z,1.40
2023-05-23T10:23:22.164Z,1.88
2023-05-23T10:25:49.606Z,1.65
2023-05-23T10:28:17.499Z,1.40
2023-05-23T10:30:46.028Z,2.00
2023-05-23T10:33:17.141Z,1.60
2023-05-23T10:36:00.697Z,1.58
2023-05-23T10:39:06.140Z,1.80
2023-05-23T10:42:11.439Z,1.70
2023-05-23T10:44:38.418Z,1.48
2023-05-23T10:47:05.971Z,1.52
2023-05-23T10:49:52.045Z,1.55
2023-05-23T10:52:19.403Z,1.40
2023-05-23T10:54:54.261Z,1.70
2023-05-23T10:57:25.587Z,1.67
2023-05-23T10:59:53.624Z,1.88
2023-05-23T11:02:26.588Z,1.30
2023-05-23T11:05:23.475Z,2.00
2023-05-23T11:08:11.187Z,2.05
2023-05-23T11:10:57.065Z,2.00
2023-05-23T11:13:24.730Z,1.40
2023-05-23T11:15:51.905Z,1.73
2023-05-23T11:18:27.903Z,1.30
2023-05-23T11:20:58.424Z,1.73
2023-05-23T11:23:40.881Z,1.90
2023-05-23T11:26:31.350Z,1.90
2023-05-23T11:28:59.508Z,1.50
2023-05-23T11:31:28.063Z,1.55
2023-05-23T11:34:05.933Z,1.58
2023-05-23T11:36:33.912Z,1.70
2023-05-23T11:39:04.756Z,1.38
2023-05-23T11:41:33.584Z,1.42
2023-05-23T11:44:01.706Z,1.70
2023-05-23T11:46:29.455Z,1.40
2023-05-23T11:48:56.914Z,1.27
2023-05-23T11:51:23.967Z,1.70
2023-05-23T11:53:51.324Z,1.48
2023-05-23T11:56:18.744Z,1.45
2023-05-23T11:58:45.685Z,1.40
2023-05-23T12:01:14.047Z,1.77
2023-05-23T12:03:51.488Z,1.35
2023-05-23T12:06:19.699Z,1.23
2023-05-23T12:08:48.462Z,1.40
2023-05-23T12:11:15.753Z,1.63
2023-05-23T12:13:43.239Z,1.55
2023-05-23T12:16:13.309Z,1.45
2023-05-23T12:18:42.871Z,1.23
2023-05-23T12:21:10.167Z,1.30
2023-05-23T12:23:37.550Z,1.35
2023-05-23T12:26:10.372Z,1.40
2023-05-23T12:28:40.394Z,1.40
2023-05-23T12:31:18.316Z,1.33
2023-05-23T12:33:47.926Z,1.10
2023-05-23T12:36:22.864Z,1.30
2023-05-23T12:38:50.057Z,1.20
2023-05-23T12:41:22.379Z,1.40
2023-05-23T12:43:57.160Z,1.10
2023-05-23T12:46:26.123Z,1.25
2023-05-23T12:48:54.108Z,1.15
2023-05-23T12:51:21.692Z,1.40
2023-05-23T12:53:49.007Z,1.20
2023-05-23T12:56:16.089Z,1.25
2023-05-23T12:58:43.918Z,1.23
2023-05-23T13:01:11.291Z,1.48
2023-05-23T13:03:38.519Z,1.30
2023-05-23T13:06:06.758Z,1.17
2023-05-23T13:08:33.802Z,1.40
2023-05-23T13:11:01.222Z,1.77
2023-05-23T13:13:28.551Z,1.08
2023-05-23T13:15:56.032Z,1.00
2023-05-23T13:18:22.999Z,1.00
2023-05-23T13:20:50.124Z,1.00
2023-05-23T13:23:17.477Z,1.20
2023-05-23T13:25:44.556Z,1.20
2023-05-23T13:28:11.562Z,1.10
2023-05-23T13:30:38.452Z,1.55
2023-05-23T13:33:05.580Z,1.00
2023-05-23T13:35:32.600Z,1.10
2023-05-23T13:37:59.578Z,0.98
2023-05-23T13:40:26.903Z,1.00
2023-05-23T13:42:53.818Z,1.10
2023-05-23T13:45:23.104Z,0.55
2023-05-23T13:47:50.681Z,0.98
2023-05-23T13:50:18.049Z,1.00
2023-05-23T13:52:48.176Z,1.05
2023-05-23T13:55:16.644Z,0.88
2023-05-23T13:57:43.555Z,0.85
2023-05-23T14:00:11.564Z,1.08
2023-05-23T14:02:38.495Z,0.90
2023-05-23T14:05:07.380Z,0.95
2023-05-23T14:07:34.720Z,1.02
2023-05-23T14:10:01.850Z,0.88
2023-05-23T14:12:29.140Z,1.00
2023-05-23T14:14:56.114Z,0.80
2023-05-23T14:17:23.154Z,0.90
2023-05-23T14:19:50.629Z,0.95
2023-05-23T14:22:17.659Z,1.48
2023-05-23T14:24:44.610Z,0.98
2023-05-23T14:27:12.225Z,0.95
2023-05-23T14:29:39.594Z,1.05
2023-05-23T14:32:07.088Z,0.60
2023-05-23T14:34:34.283Z,0.98
2023-05-23T14:37:01.390Z,0.90
2023-05-23T14:39:29.115Z,0.75
2023-05-23T14:41:56.600Z,0.90
2023-05-23T14:44:23.725Z,0.93
2023-05-23T14:46:50.852Z,0.95
2023-05-23T14:49:18.302Z,0.90
2023-05-23T14:51:51.210Z,0.90
2023-05-23T14:54:19.840Z,0.95
2023-05-23T14:56:47.253Z,0.88
2023-05-23T14:59:14.341Z,0.80
2023-05-23T15:01:41.875Z,0.85
2023-05-23T15:04:10.140Z,0.85
2023-05-23T15:06:39.160Z,1.10
2023-05-23T15:09:07.427Z,1.02
2023-05-23T15:11:38.962Z,0.80
2023-05-23T15:14:06.433Z,0.70
2023-05-23T15:16:35.223Z,0.80
2023-05-23T15:19:02.351Z,1.10
2023-05-23T15:21:29.325Z,0.65
2023-05-23T15:23:57.740Z,1.30
2023-05-23T15:26:25.189Z,1.20
2023-05-23T15:28:52.560Z,1.17
2023-05-23T15:31:20.733Z,1.10
2023-05-23T15:33:48.045Z,1.23
2023-05-23T15:36:14.952Z,0.95
2023-05-23T15:38:41.841Z,1.10
2023-05-23T15:41:10.110Z,1.05
2023-05-23T15:43:37.192Z,0.90
2023-05-23T15:46:05.451Z,0.95
2023-05-23T15:48:32.731Z,1.10
2023-05-23T15:50:59.613Z,1.00
2023-05-23T15:53:26.558Z,1.20
2023-05-23T15:55:53.629Z,1.00
2023-05-23T15:58:20.768Z,1.23
2023-05-23T16:00:48.050Z,1.20
2023-05-23T16:03:15.009Z,1.15
2023-05-23T16:05:42.585Z,1.30
2023-05-23T16:08:10.487Z,1.15
2023-05-23T16:10:37.789Z,1.27
2023-05-23T16:13:04.784Z,1.00
2023-05-23T16:15:32.068Z,1.20
2023-05-23T16:17:59.089Z,1.05
2023-05-23T16:20:26.264Z,1.15
2023-05-23T16:22:53.261Z,1.10
2023-05-23T16:25:20.308Z,1.30
2023-05-23T16:27:47.249Z,1.40
2023-05-23T16:30:14.308Z,1.20
2023-05-23T16:32:41.315Z,1.50
2023-05-23T16:35:08.748Z,1.35
2023-05-23T16:37:38.682Z,1.08
2023-05-23T16:40:09.550Z,1.20
2023-05-23T16:42:40.140Z,1.20
2023-05-23T16:45:07.697Z,1.90
2023-05-23T16:47:35.075Z,1.20
2023-05-23T16:50:02.320Z,1.30
2023-05-23T16:52:30.451Z,1.63
2023-05-23T16:54:58.354Z,1.00
2023-05-23T16:57:25.673Z,1.20
2023-05-23T16:59:52.968Z,1.13
2023-05-23T17:02:20.232Z,1.20
2023-05-23T17:04:47.251Z,1.42
2023-05-23T17:07:15.499Z,1.55
2023-05-23T17:09:42.825Z,1.33
2023-05-23T17:12:09.765Z,1.60
2023-05-23T17:14:36.944Z,1.27
2023-05-23T17:17:05.316Z,2.13
2023-05-23T17:19:32.780Z,1.60
2023-05-23T17:21:59.837Z,1.40
2023-05-23T17:24:26.841Z,1.60
2023-05-23T17:26:54.189Z,1.90
2023-05-23T17:29:21.154Z,1.80
2023-05-23T17:31:48.475Z,1.80
2023-05-23T17:34:16.061Z,1.83
2023-05-23T17:36:43.028Z,1.88
2023-05-23T17:39:10.335Z,1.98
2023-05-23T17:41:37.623Z,2.15
2023-05-23T17:44:04.478Z,2.20
2023-05-23T17:46:31.601Z,2.00
2023-05-23T17:48:58.610Z,2.15
2023-05-23T17:51:25.445Z,2.03
2023-05-23T17:53:53.871Z,1.83
2023-05-23T17:56:23.578Z,1.90
2023-05-23T17:58:51.447Z,2.05
2023-05-23T18:01:18.413Z,2.28
2023-05-23T18:03:45.495Z,3.90
2023-05-23T18:06:12.703Z,3.15
2023-05-23T18:08:41.006Z,4.00
2023-05-23T18:11:07.906Z,3.60
2023-05-23T18:13:34.828Z,3.97
2023-05-23T18:16:01.729Z,3.67
2023-05-23T18:18:28.725Z,3.70
2023-05-23T18:20:55.689Z,3.58
2023-05-23T18:23:23.276Z,4.00
2023-05-23T18:25:50.213Z,4.18
2023-05-23T18:28:17.531Z,3.88
2023-05-23T18:30:45.106Z,4.60
2023-05-23T18:33:12.189Z,4.95
2023-05-23T18:35:39.212Z,6.70
2023-05-23T18:38:06.842Z,7.22
2023-05-23T18:40:33.791Z,7.85
2023-05-23T18:43:00.743Z,7.72
2023-05-23T18:45:27.752Z,8.23
2023-05-23T18:47:55.233Z,7.53
2023-05-23T18:50:22.331Z,8.88
2023-05-23T18:52:49.261Z,7.15
2023-05-23T18:55:16.987Z,5.72
2023-05-23T18:57:44.318Z,5.38
2023-05-23T19:00:12.193Z,4.70
2023-05-23T19:02:44.166Z,17.05
2023-05-23T19:05:12.673Z,4.32
2023-05-23T19:07:39.716Z,3.53
2023-05-23T19:10:07.135Z,3.65
2023-05-23T19:12:34.197Z,3.78
2023-05-23T19:15:01.951Z,4.57
2023-05-23T19:17:28.951Z,6.72
2023-05-23T19:19:56.022Z,5.97
2023-05-23T19:22:23.813Z,6.65
2023-05-23T19:24:50.893Z,5.15
2023-05-23T19:27:17.940Z,5.47
2023-05-23T19:29:45.448Z,5.30
2023-05-23T19:32:12.716Z,5.57
2023-05-23T19:34:39.702Z,5.38
2023-05-23T19:37:06.683Z,4.60
2023-05-23T19:39:33.948Z,6.68
2023-05-23T19:42:01.246Z,6.82
2023-05-23T19:44:28.268Z,8.77
2023-05-23T19:46:55.688Z,7.90
2023-05-23T19:49:22.713Z,8.70
2023-05-23T19:51:49.980Z,8.82
2023-05-23T19:54:17.729Z,9.48
2023-05-23T19:56:45.708Z,9.10
2023-05-23T19:59:13.683Z,8.77
2023-05-23T20:01:40.670Z,6.78
2023-05-23T20:04:10.113Z,5.40
2023-05-23T20:06:37.308Z,5.60
2023-05-23T20:09:05.147Z,5.63
2023-05-23T20:11:32.469Z,5.47
2023-05-23T20:13:59.343Z,5.28
2023-05-23T20:16:26.482Z,6.20
2023-05-23T20:18:53.439Z,6.45
2023-05-23T20:21:20.849Z,7.00
2023-05-23T20:23:49.157Z,6.57
2023-05-23T20:26:16.422Z,6.40
2023-05-23T20:28:43.354Z,5.85
2023-05-23T20:31:10.654Z,6.25
2023-05-23T20:33:37.568Z,5.47
2023-05-23T20:36:04.815Z,5.60
2023-05-23T20:38:34.056Z,4.68
2023-05-23T20:41:06.615Z,4.30
2023-05-23T20:43:37.452Z,4.13
2023-05-23T20:46:09.382Z,4.10
2023-05-23T20:48:36.730Z,3.90
2023-05-23T20:51:05.762Z,4.15
2023-05-23T20:53:33.693Z,4.60
2023-05-23T20:56:01.272Z,4.13
2023-05-23T20:58:28.222Z,4.47
2023-05-23T21:00:55.928Z,3.97
2023-05-23T21:03:22.871Z,3.92
2023-05-23T21:05:50.019Z,3.92
2023-05-23T21:08:16.938Z,4.40
2023-05-23T21:10:46.785Z,3.78
2023-05-23T21:13:16.656Z,4.85
2023-05-23T21:15:43.900Z,4.53
2023-05-23T21:18:10.990Z,4.03
2023-05-23T21:20:38.353Z,4.20
2023-05-23T21:23:07.758Z,4.90
2023-05-23T21:25:34.624Z,4.50
2023-05-23T21:28:01.534Z,3.95
2023-05-23T21:30:28.954Z,4.00
2023-05-23T21:32:56.394Z,4.10
2023-05-23T21:35:23.335Z,4.07
2023-05-23T21:37:50.839Z,3.75
2023-05-23T21:40:18.016Z,4.82
2023-05-23T21:42:44.940Z,4.45
2023-05-23T21:45:11.968Z,4.30
2023-05-23T21:47:39.368Z,5.00
2023-05-23T21:50:07.063Z,4.55
2023-05-23T21:52:34.801Z,4.57
2023-05-23T21:55:02.134Z,3.80
2023-05-23T21:57:29.039Z,4.40
2023-05-23T21:59:55.909Z,4.22
2023-05-23T22:02:23.232Z,4.82
2023-05-23T22:04:50.581Z,4.80
2023-05-23T22:07:19.421Z,6.70
2023-05-23T22:09:46.447Z,6.55
2023-05-23T22:12:13.921Z,6.35
2023-05-23T22:14:41.241Z,6.30
2023-05-23T22:17:10.017Z,6.15
2023-05-23T22:19:37.638Z,5.75
2023-05-23T22:22:04.769Z,6.07
2023-05-23T22:24:31.709Z,5.80
2023-05-23T22:27:00.728Z,5.18
2023-05-23T22:29:27.712Z,5.05
2023-05-23T22:31:54.681Z,5.07
2023-05-23T22:34:23.985Z,5.07
2023-05-23T22:36:50.870Z,6.03
2023-05-23T22:39:17.791Z,5.03
2023-05-23T22:41:44.679Z,5.38
2023-05-23T22:44:11.897Z,5.15
2023-05-23T22:46:39.594Z,5.07
2023-05-23T22:49:08.862Z,5.05
2023-05-23T22:51:36.106Z,5.30
2023-05-23T22:54:03.164Z,4.60
2023-05-23T22:56:30.086Z,4.50
2023-05-23T22:58:57.349Z,4.80
2023-05-23T23:01:24.267Z,4.40
2023-05-23T23:03:51.174Z,5.03
2023-05-23T23:06:21.054Z,4.65
2023-05-23T23:08:48.031Z,4.47
2023-05-23T23:11:14.995Z,4.40
2023-05-23T23:13:41.967Z,4.68
2023-05-23T23:16:09.231Z,4.50
2023-05-23T23:18:36.222Z,4.47
2023-05-23T23:21:03.625Z,3.95
2023-05-23T23:23:30.906Z,4.40
2023-05-23T23:25:59.502Z,4.45
2023-05-23T23:28:26.530Z,4.63
2023-05-23T23:30:53.994Z,5.05
2023-05-23T23:33:21.022Z,5.13
2023-05-23T23:35:48.586Z,4.63
2023-05-23T23:38:16.480Z,5.75
2023-05-23T23:40:45.579Z,5.25
2023-05-23T23:43:13.314Z,5.03
2023-05-23T23:45:40.361Z,4.90
2023-05-23T23:48:07.234Z,4.80
2023-05-23T23:50:34.152Z,4.53
2023-05-23T23:53:01.109Z,4.10
2023-05-23T23:55:28.015Z,4.90
2023-05-23T23:57:54.914Z,4.68
